sensor_id;sensor_type;location;lat;lon;timestamp;pressure;altitude;pressure_sealevel;temperature;humidity
17855;BME280;9053;53.358;6.382;2023-01-27T00:01:43;102690.66;;;4.70;100.00
17855;BME280;9053;53.358;6.382;2023-01-27T00:04:13;102692.50;;;4.71;100.00
17855;BME280;9053;53.358;6.382;2023-01-27T00:06:43;102692.50;;;4.71;100.00
17855;BME280;9053;53.358;6.382;2023-01-27T00:09:16;102684.53;;;4.70;100.00
17855;BME280;9053;53.358;6.382;2023-01-27T00:11:46;102692.59;;;4.73;100.00
17855;BME280;9053;53.358;6.382;2023-01-27T00:14:28;102698.47;;;4.70;100.00
17855;BME280;9053;53.358;6.382;2023-01-27T00:16:57;102692.50;;;4.71;100.00
17855;BME280;9053;53.358;6.382;2023-01-27T00:19:27;102692.19;;;4.68;100.00
17855;BME280;9053;53.358;6.382;2023-01-27T00:21:57;102697.41;;;4.68;100.00
17855;BME280;9053;53.358;6.382;2023-01-27T00:24:42;102696.75;;;4.71;100.00
17855;BME280;9053;53.358;6.382;2023-01-27T00:27:12;102702.28;;;4.74;100.00
17855;BME280;9053;53.358;6.382;2023-01-27T00:29:42;102704.09;;;4.75;100.00
17855;BME280;9053;53.358;6.382;2023-01-27T00:32:11;102699.94;;;4.77;100.00
17855;BME280;9053;53.358;6.382;2023-01-27T00:34:54;102711.13;;;4.76;100.00
17855;BME280;9053;53.358;6.382;2023-01-27T00:37:23;102698.88;;;4.75;100.00
17855;BME280;9053;53.358;6.382;2023-01-27T00:39:56;102697.97;;;4.74;100.00
17855;BME280;9053;53.358;6.382;2023-01-27T00:42:26;102699.66;;;4.74;100.00
17855;BME280;9053;53.358;6.382;2023-01-27T00:44:55;102708.25;;;4.73;100.00
17855;BME280;9053;53.358;6.382;2023-01-27T00:47:38;102711.00;;;4.74;100.00
17855;BME280;9053;53.358;6.382;2023-01-27T00:50:08;102704.72;;;4.72;100.00
17855;BME280;9053;53.358;6.382;2023-01-27T00:52:39;102703.03;;;4.73;100.00
17855;BME280;9053;53.358;6.382;2023-01-27T00:55:12;102709.94;;;4.72;100.00
17855;BME280;9053;53.358;6.382;2023-01-27T00:57:42;102704.47;;;4.69;100.00
17855;BME280;9053;53.358;6.382;2023-01-27T01:00:13;102707.84;;;4.68;100.00
17855;BME280;9053;53.358;6.382;2023-01-27T01:02:43;102702.38;;;4.65;100.00
17855;BME280;9053;53.358;6.382;2023-01-27T01:05:13;102709.69;;;4.69;100.00
17855;BME280;9053;53.358;6.382;2023-01-27T01:07:43;102708.38;;;4.74;100.00
17855;BME280;9053;53.358;6.382;2023-01-27T01:10:16;102714.78;;;4.78;100.00
17855;BME280;9053;53.358;6.382;2023-01-27T01:12:45;102724.28;;;4.77;100.00
17855;BME280;9053;53.358;6.382;2023-01-27T01:15:15;102730.41;;;4.78;100.00
17855;BME280;9053;53.358;6.382;2023-01-27T01:17:45;102729.66;;;4.79;100.00
17855;BME280;9053;53.358;6.382;2023-01-27T01:20:15;102723.50;;;4.78;100.00
17855;BME280;9053;53.358;6.382;2023-01-27T01:22:45;102729.50;;;4.77;100.00
17855;BME280;9053;53.358;6.382;2023-01-27T01:25:18;102734.88;;;4.79;100.00
17855;BME280;9053;53.358;6.382;2023-01-27T01:27:47;102727.94;;;4.80;100.00
17855;BME280;9053;53.358;6.382;2023-01-27T01:30:17;102740.34;;;4.82;100.00
17855;BME280;9053;53.358;6.382;2023-01-27T01:32:47;102738.63;;;4.83;100.00
17855;BME280;9053;53.358;6.382;2023-01-27T01:35:17;102737.09;;;4.85;100.00
17855;BME280;9053;53.358;6.382;2023-01-27T01:37:47;102744.91;;;4.85;100.00
17855;BME280;9053;53.358;6.382;2023-01-27T01:40:20;102744.91;;;4.85;100.00
17855;BME280;9053;53.358;6.382;2023-01-27T01:42:54;102741.25;;;4.83;100.00
17855;BME280;9053;53.358;6.382;2023-01-27T01:45:42;102737.31;;;4.77;100.00
17855;BME280;9053;53.358;6.382;2023-01-27T01:48:17;102742.28;;;4.74;100.00
17855;BME280;9053;53.358;6.382;2023-01-27T01:50:52;102738.47;;;4.71;100.00
17855;BME280;9053;53.358;6.382;2023-01-27T01:53:25;102742.50;;;4.67;100.00
17855;BME280;9053;53.358;6.382;2023-01-27T01:56:05;102738.22;;;4.68;100.00
17855;BME280;9053;53.358;6.382;2023-01-27T01:58:37;102740.69;;;4.66;100.00
17855;BME280;9053;53.358;6.382;2023-01-27T02:01:09;102738.09;;;4.66;100.00
17855;BME280;9053;53.358;6.382;2023-01-27T02:03:42;102739.91;;;4.67;100.00
17855;BME280;9053;53.358;6.382;2023-01-27T02:06:13;102743.31;;;4.66;100.00
17855;BME280;9053;53.358;6.382;2023-01-27T02:08:44;102749.44;;;4.67;100.00
17855;BME280;9053;53.358;6.382;2023-01-27T02:11:19;102744.97;;;4.66;100.00
17855;BME280;9053;53.358;6.382;2023-01-27T02:13:49;102744.88;;;4.64;100.00
17855;BME280;9053;53.358;6.382;2023-01-27T02:16:19;102747.47;;;4.64;100.00
17855;BME280;9053;53.358;6.382;2023-01-27T02:18:48;102749.28;;;4.65;100.00
17855;BME280;9053;53.358;6.382;2023-01-27T02:21:18;102749.28;;;4.65;100.00
17855;BME280;9053;53.358;6.382;2023-01-27T02:23:55;102752.03;;;4.67;100.00
17855;BME280;9053;53.358;6.382;2023-01-27T02:26:32;102749.53;;;4.68;100.00
17855;BME280;9053;53.358;6.382;2023-01-27T02:29:06;102749.53;;;4.68;100.00
17855;BME280;9053;53.358;6.382;2023-01-27T02:31:37;102763.50;;;4.69;100.00
17855;BME280;9053;53.358;6.382;2023-01-27T02:34:10;102756.59;;;4.69;100.00
17855;BME280;9053;53.358;6.382;2023-01-27T02:36:44;102753.19;;;4.70;100.00
17855;BME280;9053;53.358;6.382;2023-01-27T02:39:17;102754.91;;;4.70;100.00
17855;BME280;9053;53.358;6.382;2023-01-27T02:41:52;102765.47;;;4.71;100.00
17855;BME280;9053;53.358;6.382;2023-01-27T02:44:23;102753.19;;;4.70;100.00
17855;BME280;9053;53.358;6.382;2023-01-27T02:46:53;102744.63;;;4.71;100.00
17855;BME280;9053;53.358;6.382;2023-01-27T02:49:23;102750.47;;;4.69;100.00
17855;BME280;9053;53.358;6.382;2023-01-27T02:51:52;102759.06;;;4.68;100.00
17855;BME280;9053;53.358;6.382;2023-01-27T02:54:23;102751.88;;;4.65;100.00
17855;BME280;9053;53.358;6.382;2023-01-27T02:56:56;102756.97;;;4.64;100.00
17855;BME280;9053;53.358;6.382;2023-01-27T02:59:26;102756.97;;;4.64;100.00
17855;BME280;9053;53.358;6.382;2023-01-27T03:01:56;102758.53;;;4.62;100.00
17855;BME280;9053;53.358;6.382;2023-01-27T03:04:25;102763.47;;;4.59;100.00
17855;BME280;9053;53.358;6.382;2023-01-27T03:06:55;102762.13;;;4.53;100.00
17855;BME280;9053;53.358;6.382;2023-01-27T03:09:25;102763.56;;;4.50;100.00
17855;BME280;9053;53.358;6.382;2023-01-27T03:11:57;102778.28;;;4.49;100.00
17855;BME280;9053;53.358;6.382;2023-01-27T03:14:40;102782.28;;;4.46;100.00
17855;BME280;9053;53.358;6.382;2023-01-27T03:17:22;102770.06;;;4.45;100.00
17855;BME280;9053;53.358;6.382;2023-01-27T03:20:05;102770.69;;;4.42;100.00
17855;BME280;9053;53.358;6.382;2023-01-27T03:22:35;102770.44;;;4.39;100.00
17855;BME280;9053;53.358;6.382;2023-01-27T03:25:06;102774.44;;;4.36;100.00
17855;BME280;9053;53.358;6.382;2023-01-27T03:27:38;102778.63;;;4.33;100.00
17855;BME280;9053;53.358;6.382;2023-01-27T03:30:10;102779.38;;;4.32;100.00
17855;BME280;9053;53.358;6.382;2023-01-27T03:32:40;102786.13;;;4.30;100.00
17855;BME280;9053;53.358;6.382;2023-01-27T03:35:13;102791.34;;;4.30;100.00
17855;BME280;9053;53.358;6.382;2023-01-27T03:37:47;102785.09;;;4.28;100.00
17855;BME280;9053;53.358;6.382;2023-01-27T03:40:29;102795.53;;;4.28;100.00
17855;BME280;9053;53.358;6.382;2023-01-27T03:43:14;102794.31;;;4.25;100.00
17855;BME280;9053;53.358;6.382;2023-01-27T03:45:56;102790.53;;;4.21;100.00
17855;BME280;9053;53.358;6.382;2023-01-27T03:48:39;102791.03;;;4.17;100.00
17855;BME280;9053;53.358;6.382;2023-01-27T03:51:09;102794.91;;;4.12;100.00
17855;BME280;9053;53.358;6.382;2023-01-27T03:53:39;102791.13;;;4.08;100.00
17855;BME280;9053;53.358;6.382;2023-01-27T03:56:09;102793.41;;;4.05;100.00
17855;BME280;9053;53.358;6.382;2023-01-27T03:58:42;102789.16;;;4.06;100.00
17855;BME280;9053;53.358;6.382;2023-01-27T04:01:14;102796.16;;;4.07;100.00
17855;BME280;9053;53.358;6.382;2023-01-27T04:03:45;102796.97;;;4.06;100.00
17855;BME280;9053;53.358;6.382;2023-01-27T04:06:30;102808.13;;;4.05;100.00
17855;BME280;9053;53.358;6.382;2023-01-27T04:09:17;102807.22;;;4.04;100.00
17855;BME280;9053;53.358;6.382;2023-01-27T04:11:48;102810.72;;;4.05;100.00
17855;BME280;9053;53.358;6.382;2023-01-27T04:14:31;102809.97;;;4.06;100.00
17855;BME280;9053;53.358;6.382;2023-01-27T04:17:05;102808.91;;;4.04;100.00
17855;BME280;9053;53.358;6.382;2023-01-27T04:19:39;102806.94;;;4.01;100.00
17855;BME280;9053;53.358;6.382;2023-01-27T04:22:09;102812.91;;;4.00;100.00
17855;BME280;9053;53.358;6.382;2023-01-27T04:24:40;102813.84;;;4.01;100.00
17855;BME280;9053;53.358;6.382;2023-01-27T04:27:12;102806.03;;;4.01;100.00
17855;BME280;9053;53.358;6.382;2023-01-27T04:29:47;102804.34;;;4.01;100.00
17855;BME280;9053;53.358;6.382;2023-01-27T04:32:17;102814.88;;;4.03;100.00
17855;BME280;9053;53.358;6.382;2023-01-27T04:34:47;102816.22;;;4.08;100.00
17855;BME280;9053;53.358;6.382;2023-01-27T04:37:16;102815.56;;;4.10;100.00
17855;BME280;9053;53.358;6.382;2023-01-27T04:39:46;102822.75;;;4.13;100.00
17855;BME280;9053;53.358;6.382;2023-01-27T04:42:16;102824.44;;;4.12;100.00
17855;BME280;9053;53.358;6.382;2023-01-27T04:44:49;102829.81;;;4.14;100.00
17855;BME280;9053;53.358;6.382;2023-01-27T04:47:18;102826.41;;;4.15;100.00
17855;BME280;9053;53.358;6.382;2023-01-27T04:49:48;102828.38;;;4.18;100.00
17855;BME280;9053;53.358;6.382;2023-01-27T04:52:18;102825.94;;;4.19;100.00
17855;BME280;9053;53.358;6.382;2023-01-27T04:54:48;102825.94;;;4.19;100.00
17855;BME280;9053;53.358;6.382;2023-01-27T04:57:18;102833.75;;;4.19;100.00
17855;BME280;9053;53.358;6.382;2023-01-27T04:59:50;102835.28;;;4.17;100.00
17855;BME280;9053;53.358;6.382;2023-01-27T05:02:20;102834.50;;;4.18;100.00
17855;BME280;9053;53.358;6.382;2023-01-27T05:04:51;102832.84;;;4.19;100.00
17855;BME280;9053;53.358;6.382;2023-01-27T05:07:20;102831.91;;;4.18;100.00
17855;BME280;9053;53.358;6.382;2023-01-27T05:09:50;102830.34;;;4.20;100.00
17855;BME280;9053;53.358;6.382;2023-01-27T05:12:20;102843.38;;;4.20;100.00
17855;BME280;9053;53.358;6.382;2023-01-27T05:14:52;102836.47;;;4.21;100.00
17855;BME280;9053;53.358;6.382;2023-01-27T05:17:22;102838.31;;;4.22;100.00
17855;BME280;9053;53.358;6.382;2023-01-27T05:19:53;102836.47;;;4.21;100.00
17855;BME280;9053;53.358;6.382;2023-01-27T05:22:23;102846.13;;;4.22;100.00
17855;BME280;9053;53.358;6.382;2023-01-27T05:24:53;102850.44;;;4.21;100.00
17855;BME280;9053;53.358;6.382;2023-01-27T05:27:23;102857.47;;;4.22;100.00
17855;BME280;9053;53.358;6.382;2023-01-27T05:29:56;102843.53;;;4.22;100.00
17855;BME280;9053;53.358;6.382;2023-01-27T05:32:26;102847.69;;;4.20;100.00
17855;BME280;9053;53.358;6.382;2023-01-27T05:34:56;102837.09;;;4.18;100.00
17855;BME280;9053;53.358;6.382;2023-01-27T05:37:26;102847.53;;;4.18;100.00
17855;BME280;9053;53.358;6.382;2023-01-27T05:39:56;102831.91;;;4.18;100.00
17855;BME280;9053;53.358;6.382;2023-01-27T05:42:25;102827.63;;;4.19;100.00
17855;BME280;9053;53.358;6.382;2023-01-27T05:44:58;102835.72;;;4.22;100.00
17855;BME280;9053;53.358;6.382;2023-01-27T05:47:28;102842.63;;;4.21;100.00
17855;BME280;9053;53.358;6.382;2023-01-27T05:49:57;102824.38;;;4.21;100.00
17855;BME280;9053;53.358;6.382;2023-01-27T05:52:27;102822.44;;;4.19;100.00
17855;BME280;9053;53.358;6.382;2023-01-27T05:54:57;102827.63;;;4.19;100.00
17855;BME280;9053;53.358;6.382;2023-01-27T05:57:27;102827.47;;;4.17;100.00
17855;BME280;9053;53.358;6.382;2023-01-27T05:59:59;102828.53;;;4.19;100.00
17855;BME280;9053;53.358;6.382;2023-01-27T06:02:29;102823.34;;;4.19;100.00
17855;BME280;9053;53.358;6.382;2023-01-27T06:04:59;102824.09;;;4.18;100.00
17855;BME280;9053;53.358;6.382;2023-01-27T06:07:29;102837.09;;;4.18;100.00
17855;BME280;9053;53.358;6.382;2023-01-27T06:09:59;102832.97;;;4.20;100.00
17855;BME280;9053;53.358;6.382;2023-01-27T06:12:29;102827.63;;;4.19;100.00
17855;BME280;9053;53.358;6.382;2023-01-27T06:15:01;102827.00;;;4.21;100.00
17855;BME280;9053;53.358;6.382;2023-01-27T06:17:31;102833.75;;;4.19;100.00
17855;BME280;9053;53.358;6.382;2023-01-27T06:20:01;102844.94;;;4.18;100.00
17855;BME280;9053;53.358;6.382;2023-01-27T06:22:31;102833.75;;;4.19;100.00
17855;BME280;9053;53.358;6.382;2023-01-27T06:25:01;102854.06;;;4.23;100.00
17855;BME280;9053;53.358;6.382;2023-01-27T06:27:31;102852.25;;;4.22;100.00
17855;BME280;9053;53.358;6.382;2023-01-27T06:30:04;102857.47;;;4.22;100.00
17855;BME280;9053;53.358;6.382;2023-01-27T06:32:34;102863.59;;;4.23;100.00
17855;BME280;9053;53.358;6.382;2023-01-27T06:35:05;102870.75;;;4.25;100.00
17855;BME280;9053;53.358;6.382;2023-01-27T06:37:35;102866.97;;;4.22;100.00
17855;BME280;9053;53.358;6.382;2023-01-27T06:40:06;102866.97;;;4.22;100.00
17855;BME280;9053;53.358;6.382;2023-01-27T06:42:40;102867.88;;;4.22;100.00
17855;BME280;9053;53.358;6.382;2023-01-27T06:45:14;102870.50;;;4.22;100.00
17855;BME280;9053;53.358;6.382;2023-01-27T06:47:44;102874.78;;;4.22;100.00
17855;BME280;9053;53.358;6.382;2023-01-27T06:50:14;102877.50;;;4.23;100.00
17855;BME280;9053;53.358;6.382;2023-01-27T06:52:44;102876.47;;;4.21;100.00
17855;BME280;9053;53.358;6.382;2023-01-27T06:55:14;102871.13;;;4.20;100.00
17855;BME280;9053;53.358;6.382;2023-01-27T06:57:44;102875.69;;;4.22;100.00
17855;BME280;9053;53.358;6.382;2023-01-27T07:00:19;102879.38;;;4.24;100.00
17855;BME280;9053;53.358;6.382;2023-01-27T07:02:48;102871.28;;;4.21;100.00
17855;BME280;9053;53.358;6.382;2023-01-27T07:05:19;102874.63;;;4.20;100.00
17855;BME280;9053;53.358;6.382;2023-01-27T07:07:49;102882.44;;;4.20;100.00
17855;BME280;9053;53.358;6.382;2023-01-27T07:10:19;102886.75;;;4.20;100.00
17855;BME280;9053;53.358;6.382;2023-01-27T07:12:49;102879.09;;;4.21;99.93
17855;BME280;9053;53.358;6.382;2023-01-27T07:15:21;102878.31;;;4.22;99.77
17855;BME280;9053;53.358;6.382;2023-01-27T07:17:51;102882.88;;;4.25;99.89
17855;BME280;9053;53.358;6.382;2023-01-27T07:20:21;102884.56;;;4.24;99.77
17855;BME280;9053;53.358;6.382;2023-01-27T07:22:55;102892.53;;;4.26;99.66
17855;BME280;9053;53.358;6.382;2023-01-27T07:25:26;102893.28;;;4.25;99.75
17855;BME280;9053;53.358;6.382;2023-01-27T07:27:56;102906.31;;;4.25;99.73
17855;BME280;9053;53.358;6.382;2023-01-27T07:30:29;102903.44;;;4.22;99.60
17855;BME280;9053;53.358;6.382;2023-01-27T07:33:03;102902.38;;;4.20;99.66
17855;BME280;9053;53.358;6.382;2023-01-27T07:35:34;102913.84;;;4.22;99.52
17855;BME280;9053;53.358;6.382;2023-01-27T07:38:04;102908.66;;;4.22;99.41
17855;BME280;9053;53.358;6.382;2023-01-27T07:40:34;102903.56;;;4.23;99.37
17855;BME280;9053;53.358;6.382;2023-01-27T07:43:04;102907.38;;;4.27;99.43
17855;BME280;9053;53.358;6.382;2023-01-27T07:45:37;102913.94;;;4.32;99.27
17855;BME280;9053;53.358;6.382;2023-01-27T07:48:07;102914.09;;;4.33;99.25
17855;BME280;9053;53.358;6.382;2023-01-27T07:50:39;102916.69;;;4.33;99.26
17855;BME280;9053;53.358;6.382;2023-01-27T07:53:09;102920.22;;;4.34;99.18
17855;BME280;9053;53.358;6.382;2023-01-27T07:55:40;102915.13;;;4.36;99.31
17855;BME280;9053;53.358;6.382;2023-01-27T07:58:10;102915.91;;;4.34;99.05
17855;BME280;9053;53.358;6.382;2023-01-27T08:00:42;102912.38;;;4.34;99.02
17855;BME280;9053;53.358;6.382;2023-01-27T08:03:20;102916.69;;;4.33;99.02
17855;BME280;9053;53.358;6.382;2023-01-27T08:05:51;102915.13;;;4.36;99.06
17855;BME280;9053;53.358;6.382;2023-01-27T08:08:21;102917.72;;;4.36;99.06
17855;BME280;9053;53.358;6.382;2023-01-27T08:10:51;102918.78;;;4.38;98.99
17855;BME280;9053;53.358;6.382;2023-01-27T08:13:20;102920.63;;;4.39;99.15
17855;BME280;9053;53.358;6.382;2023-01-27T08:15:57;102932.88;;;4.40;99.02
17855;BME280;9053;53.358;6.382;2023-01-27T08:18:28;102933.94;;;4.42;98.99
17855;BME280;9053;53.358;6.382;2023-01-27T08:21:00;102939.56;;;4.46;99.26
17855;BME280;9053;53.358;6.382;2023-01-27T08:23:30;102934.47;;;4.48;99.14
17855;BME280;9053;53.358;6.382;2023-01-27T08:26:03;102943.63;;;4.53;99.35
17855;BME280;9053;53.358;6.382;2023-01-27T08:28:34;102943.16;;;4.57;99.32
17855;BME280;9053;53.358;6.382;2023-01-27T08:31:09;102948.53;;;4.59;99.59
17855;BME280;9053;53.358;6.382;2023-01-27T08:33:42;102956.47;;;4.60;99.61
17855;BME280;9053;53.358;6.382;2023-01-27T08:36:14;102954.75;;;4.61;99.85
17855;BME280;9053;53.358;6.382;2023-01-27T08:38:45;102961.81;;;4.62;99.90
17855;BME280;9053;53.358;6.382;2023-01-27T08:41:17;102958.44;;;4.63;99.93
17855;BME280;9053;53.358;6.382;2023-01-27T08:43:48;102963.00;;;4.65;100.00
17855;BME280;9053;53.358;6.382;2023-01-27T08:46:20;102951.03;;;4.67;100.00
17855;BME280;9053;53.358;6.382;2023-01-27T08:48:51;102962.38;;;4.68;100.00
17855;BME280;9053;53.358;6.382;2023-01-27T08:51:20;102969.28;;;4.67;100.00
17855;BME280;9053;53.358;6.382;2023-01-27T08:53:50;102968.22;;;4.65;100.00
17855;BME280;9053;53.358;6.382;2023-01-27T08:56:20;102961.69;;;4.60;100.00
17855;BME280;9053;53.358;6.382;2023-01-27T08:58:50;102957.09;;;4.58;100.00
17855;BME280;9053;53.358;6.382;2023-01-27T09:01:22;102976.25;;;4.58;100.00
17855;BME280;9053;53.358;6.382;2023-01-27T09:03:52;102978.75;;;4.57;100.00
17855;BME280;9053;53.358;6.382;2023-01-27T09:06:22;102975.06;;;4.54;100.00
17855;BME280;9053;53.358;6.382;2023-01-27T09:08:55;102983.53;;;4.52;100.00
17855;BME280;9053;53.358;6.382;2023-01-27T09:11:41;102979.69;;;4.48;100.00
17855;BME280;9053;53.358;6.382;2023-01-27T09:14:13;102979.56;;;4.47;100.00
17855;BME280;9053;53.358;6.382;2023-01-27T09:16:45;102989.22;;;4.48;100.00
17855;BME280;9053;53.358;6.382;2023-01-27T09:19:15;102986.59;;;4.48;100.00
17855;BME280;9053;53.358;6.382;2023-01-27T09:21:45;102982.44;;;4.50;100.00
17855;BME280;9053;53.358;6.382;2023-01-27T09:24:15;102987.94;;;4.53;100.00
17855;BME280;9053;53.358;6.382;2023-01-27T09:26:45;102981.81;;;4.52;100.00
17855;BME280;9053;53.358;6.382;2023-01-27T09:29:15;102982.09;;;4.55;100.00
17855;BME280;9053;53.358;6.382;2023-01-27T09:31:47;102988.22;;;4.56;100.00
17855;BME280;9053;53.358;6.382;2023-01-27T09:34:17;102977.03;;;4.57;100.00
17855;BME280;9053;53.358;6.382;2023-01-27T09:36:55;102984.38;;;4.61;100.00
17855;BME280;9053;53.358;6.382;2023-01-27T09:39:27;102980.19;;;4.63;100.00
17855;BME280;9053;53.358;6.382;2023-01-27T09:42:24;102984.44;;;4.71;100.00
17855;BME280;9053;53.358;6.382;2023-01-27T09:45:19;102985.84;;;4.68;100.00
17855;BME280;9053;53.358;6.382;2023-01-27T09:48:20;102986.97;;;4.61;100.00
17855;BME280;9053;53.358;6.382;2023-01-27T09:50:56;102984.38;;;4.61;100.00
17855;BME280;9053;53.358;6.382;2023-01-27T09:56:29;102979.28;;;4.63;100.00
17855;BME280;9053;53.358;6.382;2023-01-27T09:59:16;102975.91;;;4.64;100.00
17855;BME280;9053;53.358;6.382;2023-01-27T10:01:56;102976.03;;;4.65;100.00
17855;BME280;9053;53.358;6.382;2023-01-27T10:10:38;102992.47;;;4.64;100.00
17855;BME280;9053;53.358;6.382;2023-01-27T10:13:20;102991.13;;;4.59;100.00
17855;BME280;9053;53.358;6.382;2023-01-27T10:16:05;102995.56;;;4.60;100.00
17855;BME280;9053;53.358;6.382;2023-01-27T10:18:56;102994.81;;;4.61;100.00
17855;BME280;9053;53.358;6.382;2023-01-27T10:21:35;103000.78;;;4.60;100.00
17855;BME280;9053;53.358;6.382;2023-01-27T10:24:20;102991.25;;;4.61;100.00
17855;BME280;9053;53.358;6.382;2023-01-27T10:26:55;102994.28;;;4.65;100.00
17855;BME280;9053;53.358;6.382;2023-01-27T10:29:34;102994.88;;;4.71;100.00
17855;BME280;9053;53.358;6.382;2023-01-27T10:32:16;102995.00;;;4.73;100.00
17855;BME280;9053;53.358;6.382;2023-01-27T10:34:51;102997.16;;;4.68;100.00
17855;BME280;9053;53.358;6.382;2023-01-27T10:37:29;102994.28;;;4.65;100.00
17855;BME280;9053;53.358;6.382;2023-01-27T10:40:09;102991.56;;;4.64;100.00
17855;BME280;9053;53.358;6.382;2023-01-27T10:42:45;102993.75;;;4.59;100.00
17855;BME280;9053;53.358;6.382;2023-01-27T10:45:26;102989.63;;;4.52;100.00
17855;BME280;9053;53.358;6.382;2023-01-27T10:48:10;102987.38;;;4.47;100.00
17855;BME280;9053;53.358;6.382;2023-01-27T10:50:46;102986.59;;;4.48;100.00
17855;BME280;9053;53.358;6.382;2023-01-27T10:53:21;102987.94;;;4.53;100.00
17855;BME280;9053;53.358;6.382;2023-01-27T10:56:01;102990.06;;;4.57;100.00
17855;BME280;9053;53.358;6.382;2023-01-27T10:58:45;102986.97;;;4.61;100.00
17855;BME280;9053;53.358;6.382;2023-01-27T11:01:19;102991.69;;;4.65;100.00
17855;BME280;9053;53.358;6.382;2023-01-27T11:03:59;102982.31;;;4.67;100.00
17855;BME280;9053;53.358;6.382;2023-01-27T11:06:36;102980.78;;;4.69;100.00
17855;BME280;9053;53.358;6.382;2023-01-27T11:09:14;102984.56;;;4.73;100.00
17855;BME280;9053;53.358;6.382;2023-01-27T11:11:48;102989.28;;;4.77;100.00
17855;BME280;9053;53.358;6.382;2023-01-27T11:14:25;102982.38;;;4.77;100.00
17855;BME280;9053;53.358;6.382;2023-01-27T11:17:00;102981.31;;;4.75;100.00
17855;BME280;9053;53.358;6.382;2023-01-27T11:19:37;102976.91;;;4.74;100.00
17855;BME280;9053;53.358;6.382;2023-01-27T11:22:17;102981.31;;;4.75;100.00
17855;BME280;9053;53.358;6.382;2023-01-27T11:24:53;102977.81;;;4.75;100.00
17855;BME280;9053;53.358;6.382;2023-01-27T11:27:35;102977.81;;;4.75;100.00
17855;BME280;9053;53.358;6.382;2023-01-27T11:30:15;102971.53;;;4.73;100.00
17855;BME280;9053;53.358;6.382;2023-01-27T11:32:56;102959.56;;;4.75;100.00
17855;BME280;9053;53.358;6.382;2023-01-27T11:35:29;102969.97;;;4.75;100.00
17855;BME280;9053;53.358;6.382;2023-01-27T11:37:59;102972.75;;;4.76;100.00
17855;BME280;9053;53.358;6.382;2023-01-27T11:40:41;102962.44;;;4.78;100.00
17855;BME280;9053;53.358;6.382;2023-01-27T11:43:19;102973.56;;;4.86;100.00
17855;BME280;9053;53.358;6.382;2023-01-27T11:45:51;102958.34;;;4.90;100.00
17855;BME280;9053;53.358;6.382;2023-01-27T11:48:25;102954.34;;;4.94;100.00
17855;BME280;9053;53.358;6.382;2023-01-27T11:50:58;102946.91;;;4.98;100.00
17855;BME280;9053;53.358;6.382;2023-01-27T11:53:30;102957.47;;;5.00;100.00
17855;BME280;9053;53.358;6.382;2023-01-27T11:56:09;102941.03;;;5.01;100.00
17855;BME280;9053;53.358;6.382;2023-01-27T11:58:50;102946.03;;;5.08;100.00
17855;BME280;9053;53.358;6.382;2023-01-27T12:01:33;102947.25;;;5.12;100.00
17855;BME280;9053;53.358;6.382;2023-01-27T12:04:09;102952.94;;;5.08;100.00
17855;BME280;9053;53.358;6.382;2023-01-27T12:06:44;102953.44;;;5.04;100.00
17855;BME280;9053;53.358;6.382;2023-01-27T12:09:33;102966.63;;;5.05;100.00
17855;BME280;9053;53.358;6.382;2023-01-27T12:12:25;102960.25;;;5.02;100.00
17855;BME280;9053;53.358;6.382;2023-01-27T12:15:03;102953.81;;;4.98;100.00
17855;BME280;9053;53.358;6.382;2023-01-27T12:17:37;102949.22;;;4.95;100.00
17855;BME280;9053;53.358;6.382;2023-01-27T12:20:24;102966.59;;;4.95;100.00
17855;BME280;9053;53.358;6.382;2023-01-27T12:22:58;102956.84;;;4.84;100.00
17855;BME280;9053;53.358;6.382;2023-01-27T12:25:32;102964.50;;;4.72;100.00
17855;BME280;9053;53.358;6.382;2023-01-27T12:28:20;102964.84;;;4.66;100.00
17855;BME280;9053;53.358;6.382;2023-01-27T12:31:02;102957.53;;;4.62;100.00
17855;BME280;9053;53.358;6.382;2023-01-27T12:33:36;102950.75;;;4.64;100.00
17855;BME280;9053;53.358;6.382;2023-01-27T12:36:11;102951.84;;;4.66;100.00
17855;BME280;9053;53.358;6.382;2023-01-27T12:38:44;102950.13;;;4.67;100.00
17855;BME280;9053;53.358;6.382;2023-01-27T12:41:24;102948.91;;;4.63;100.00
17855;BME280;9053;53.358;6.382;2023-01-27T12:43:56;102945.59;;;4.55;100.00
17855;BME280;9053;53.358;6.382;2023-01-27T12:46:30;102954.84;;;4.52;100.00
17855;BME280;9053;53.358;6.382;2023-01-27T12:49:04;102950.56;;;4.52;100.00
17855;BME280;9053;53.358;6.382;2023-01-27T12:51:40;102950.97;;;4.57;100.00
17855;BME280;9053;53.358;6.382;2023-01-27T12:54:16;102950.19;;;4.58;100.00
17855;BME280;9053;53.358;6.382;2023-01-27T12:56:48;102952.16;;;4.61;100.00
17855;BME280;9053;53.358;6.382;2023-01-27T12:59:20;102945.28;;;4.61;100.00
17855;BME280;9053;53.358;6.382;2023-01-27T13:02:08;102948.63;;;4.60;100.00
17855;BME280;9053;53.358;6.382;2023-01-27T13:04:48;102953.75;;;4.59;100.00
17855;BME280;9053;53.358;6.382;2023-01-27T13:07:23;102949.13;;;4.56;100.00
17855;BME280;9053;53.358;6.382;2023-01-27T13:09:56;102946.81;;;4.59;100.00
17855;BME280;9053;53.358;6.382;2023-01-27T13:12:31;102953.84;;;4.60;100.00
17855;BME280;9053;53.358;6.382;2023-01-27T13:15:14;102948.78;;;4.62;100.00
17855;BME280;9053;53.358;6.382;2023-01-27T13:17:48;102947.72;;;4.60;100.00
17855;BME280;9053;53.358;6.382;2023-01-27T13:20:22;102944.97;;;4.58;100.00
17855;BME280;9053;53.358;6.382;2023-01-27T13:22:56;102947.47;;;4.57;100.00
17855;BME280;9053;53.358;6.382;2023-01-27T13:25:35;102943.16;;;4.57;100.00
17855;BME280;9053;53.358;6.382;2023-01-27T13:28:07;102948.38;;;4.57;100.00
17855;BME280;9053;53.358;6.382;2023-01-27T13:30:42;102942.56;;;4.51;100.00
17855;BME280;9053;53.358;6.382;2023-01-27T13:33:23;102943.38;;;4.50;100.00
17855;BME280;9053;53.358;6.382;2023-01-27T13:35:59;102950.38;;;4.51;100.00
17855;BME280;9053;53.358;6.382;2023-01-27T13:38:37;102947.16;;;4.53;100.00
17855;BME280;9053;53.358;6.382;2023-01-27T13:41:17;102952.03;;;4.59;100.00
17855;BME280;9053;53.358;6.382;2023-01-27T13:43:54;102944.34;;;4.61;100.00
17855;BME280;9053;53.358;6.382;2023-01-27T13:46:30;102955.41;;;4.58;100.00